Time;durP1;ratioP1;P1;durP2;ratioP2;P2;SDS_P1;SDS_P2;PMS_P1;PMS_P2;Temp;Humidity;BMP_temperature;BMP_pressure;BME280_temperature;BME280_humidity;BME280_pressure;Samples;Min_cycle;Max_cycle;Signal;HPM_P1;HPM_P2
2022/11/13 00:01:42;;;;;;;13.93;8.03;;;;;;;13.86;80.07;102836.78;1716273;81;21944;-87
2022/11/13 00:04:35;;;;;;;16.48;7.60;;;;;;;13.85;80.04;102835.00;1726918;81;20994;-88
2022/11/13 00:06:58;;;;;;;16.45;9.05;;;;;;;13.84;80.00;102837.56;1719740;82;20981;-88
2022/11/13 00:09:26;;;;;;;13.53;6.80;;;;;;;13.81;79.97;102842.28;1729059;82;21040;-87
2022/11/13 00:12:02;;;;;;;12.82;6.55;;;;;;;13.77;80.00;102835.94;1707253;80;51717;-88
2022/11/13 00:14:37;;;;;;;12.60;5.90;;;;;;;13.80;80.01;102832.12;1754924;80;21033;-88
2022/11/13 00:17:06;;;;;;;15.43;6.10;;;;;;;13.79;79.93;102834.30;1751266;80;20977;-87
2022/11/13 00:19:44;;;;;;;13.50;5.65;;;;;;;13.77;79.90;102835.94;1757157;80;21029;-88
2022/11/13 00:22:11;;;;;;;13.28;5.37;;;;;;;13.76;79.91;102835.91;1751848;80;20988;-88
2022/11/13 00:24:49;;;;;;;12.33;6.00;;;;;;;13.75;79.90;102829.68;1754093;80;21795;-87
2022/11/13 00:27:16;;;;;;;12.73;6.22;;;;;;;13.73;79.86;102827.38;1732988;80;20973;-88
2022/11/13 00:29:53;;;;;;;9.55;5.42;;;;;;;13.75;79.85;102834.97;1759660;80;20977;-88
2022/11/13 00:32:27;;;;;;;11.57;5.35;;;;;;;13.75;79.91;102834.08;1750414;80;20973;-88
2022/11/13 00:34:53;;;;;;;10.50;4.65;;;;;;;13.77;79.93;102842.56;1757972;80;20969;-88
2022/11/13 00:37:23;;;;;;;10.40;4.92;;;;;;;13.79;79.89;102840.92;1765484;80;22443;-88
2022/11/13 00:39:50;;;;;;;12.75;5.33;;;;;;;13.79;79.81;102843.56;1756617;80;21005;-88
2022/11/13 00:42:32;;;;;;;13.55;6.08;;;;;;;13.77;79.78;102847.85;1754241;80;21008;-88
2022/11/13 00:45:13;;;;;;;13.50;4.20;;;;;;;13.79;79.82;102847.53;1758132;80;21010;-88
2022/11/13 00:47:38;;;;;;;8.53;4.25;;;;;;;13.79;79.71;102842.64;1733507;80;20985;-87
2022/11/13 00:50:05;;;;;;;12.53;5.08;;;;;;;13.78;79.72;102831.58;1759882;80;21708;-87
2022/11/13 00:52:50;;;;;;;11.70;4.58;;;;;;;13.77;79.75;102828.43;1766241;80;20949;-88
2022/11/13 00:55:17;;;;;;;13.78;5.12;;;;;;;13.78;79.75;102831.15;1753974;80;21017;-88
2022/11/13 00:57:46;;;;;;;15.40;4.95;;;;;;;13.77;79.62;102832.40;1760570;80;20973;-88
2022/11/13 01:00:21;;;;;;;8.93;4.00;;;;;;;13.76;79.70;102827.53;1751889;80;21032;-87
2022/11/13 01:03:03;;;;;;;13.05;4.70;;;;;;;13.75;79.69;102832.33;1728444;80;21736;-88
2022/11/13 01:05:39;;;;;;;;;;;;;;;;;;;;;
2022/11/13 01:08:05;;;;;;;10.23;4.80;;;;;;;13.76;79.60;102831.50;1748825;80;21805;-88
2022/11/13 01:10:32;;;;;;;12.10;5.08;;;;;;;13.76;79.65;102827.96;1756040;80;21000;-87
2022/11/13 01:12:59;;;;;;;11.78;5.00;;;;;;;13.75;79.55;102828.78;1755624;80;20982;-87
2022/11/13 01:15:37;;;;;;;12.45;5.40;;;;;;;13.75;79.53;102823.48;1762192;80;21773;-87
2022/11/13 01:18:12;;;;;;;11.60;5.10;;;;;;;13.74;79.53;102826.56;1737862;80;20990;-88
2022/11/13 01:20:39;;;;;;;13.15;4.95;;;;;;;13.73;79.48;102819.44;1760159;80;20985;-87
2022/11/13 01:23:08;;;;;;;13.03;4.90;;;;;;;13.74;79.46;102822.98;1753806;80;21487;-88
2022/11/13 01:25:35;;;;;;;9.90;5.20;;;;;;;13.71;79.36;102815.83;1751774;80;21056;-87
2022/11/13 01:28:01;;;;;;;12.75;4.97;;;;;;;13.70;79.43;102811.39;1744501;81;21781;-87
2022/11/13 01:30:32;;;;;;;9.55;4.35;;;;;;;13.70;79.44;102812.71;1719318;81;21859;-88
2022/11/13 01:33:12;;;;;;;12.98;4.70;;;;;;;13.72;79.37;102811.43;1743278;81;21450;-87
2022/11/13 01:35:38;;;;;;;10.28;4.50;;;;;;;13.72;79.36;102814.08;1720217;82;21024;-87
2022/11/13 01:38:05;;;;;;;15.20;4.85;;;;;;;13.72;79.32;102812.75;1730032;81;21100;-88
2022/11/13 01:40:32;;;;;;;10.32;4.17;;;;;;;13.72;79.29;102803.48;1742596;81;21745;-88
2022/11/13 01:42:58;;;;;;;11.95;5.33;;;;;;;13.74;79.34;102809.75;1734086;81;20977;-88
2022/11/13 01:45:59;;;;;;;13.85;5.12;;;;;;;13.74;79.31;102800.48;1770150;79;20959;-88
2022/11/13 01:48:29;;;;;;;10.60;4.80;;;;;;;13.74;79.23;102795.19;1770053;79;21058;-88
2022/11/13 01:50:56;;;;;;;10.93;4.35;;;;;;;13.73;79.20;102794.30;1763794;79;21010;-87
2022/11/13 01:53:22;;;;;;;9.75;4.22;;;;;;;13.72;79.12;102795.16;1772757;79;21705;-88
2022/11/13 01:55:49;;;;;;;8.25;4.50;;;;;;;13.70;79.15;102802.13;1775500;79;21728;-87
2022/11/13 01:58:16;;;;;;;7.92;4.50;;;;;;;13.71;79.13;102801.27;1767779;79;20999;-87
2022/11/13 02:00:42;;;;;;;12.03;5.45;;;;;;;13.71;79.09;102801.70;1770530;79;21030;-87
2022/11/13 02:03:10;;;;;;;12.37;5.12;;;;;;;13.71;79.05;102801.70;1772368;79;20999;-87
2022/11/13 02:05:37;;;;;;;13.38;5.92;;;;;;;13.70;79.08;102798.16;1772648;79;21812;-87
2022/11/13 02:08:04;;;;;;;10.10;5.15;;;;;;;13.72;79.14;102802.16;1768797;79;21004;-87
2022/11/13 02:10:30;;;;;;;12.33;5.10;;;;;;;13.70;79.04;102790.22;1772471;79;21930;-87
2022/11/13 02:12:57;;;;;;;10.30;4.95;;;;;;;13.69;79.00;102796.33;1766569;79;20998;-87
2022/11/13 02:15:24;;;;;;;12.03;5.30;;;;;;;13.66;78.97;102789.56;1776349;79;21451;-87
2022/11/13 02:17:55;;;;;;;11.50;5.90;;;;;;;13.64;79.00;102789.02;1771354;79;21825;-87
2022/11/13 02:20:30;;;;;;;17.52;6.25;;;;;;;13.63;79.04;102789.45;1733521;79;21010;-87
2022/11/13 02:23:02;;;;;;;10.32;5.20;;;;;;;13.63;79.02;102785.48;1768463;79;21054;-87
2022/11/13 02:25:29;;;;;;;14.45;5.12;;;;;;;13.62;78.99;102790.27;1777948;79;20979;-87
2022/11/13 02:27:56;;;;;;;11.30;5.08;;;;;;;13.61;79.06;102788.05;1753820;79;21003;-87
2022/11/13 02:30:29;;;;;;;14.95;6.20;;;;;;;13.62;79.04;102792.91;1765405;79;21812;-87
2022/11/13 02:32:56;;;;;;;12.20;5.22;;;;;;;13.62;79.04;102794.23;1773337;79;20994;-87
2022/11/13 02:35:30;;;;;;;10.98;5.17;;;;;;;13.62;79.00;102791.59;1770624;79;20991;-86
2022/11/13 02:38:01;;;;;;;10.05;5.08;;;;;;;13.60;78.98;102791.52;1770204;79;21500;-87
2022/11/13 02:40:27;;;;;;;11.40;5.12;;;;;;;13.61;79.01;102793.34;1770330;79;20971;-87
2022/11/13 02:42:54;;;;;;;10.72;5.20;;;;;;;13.62;78.94;102795.55;1767421;79;21718;-88
2022/11/13 02:45:21;;;;;;;9.25;4.47;;;;;;;13.59;78.87;102788.40;1765984;79;21054;-87
2022/11/13 02:47:48;;;;;;;9.00;4.10;;;;;;;13.60;78.81;102790.19;1767189;79;21015;-87
2022/11/13 02:50:15;;;;;;;9.98;4.03;;;;;;;13.60;78.85;102787.97;1772022;79;21784;-87
2022/11/13 02:52:42;;;;;;;12.00;4.05;;;;;;;13.63;78.85;102784.16;1768894;79;21003;-88
2022/11/13 02:55:09;;;;;;;13.13;4.10;;;;;;;13.64;78.79;102787.27;1769732;79;22560;-87
2022/11/13 02:57:36;;;;;;;8.15;3.98;;;;;;;13.65;78.75;102785.13;1769059;79;21002;-88
2022/11/13 03:00:04;;;;;;;9.83;3.45;;;;;;;13.65;78.73;102782.91;1771168;79;21019;-88
2022/11/13 03:02:31;;;;;;;17.30;3.72;;;;;;;13.62;78.71;102782.33;1772838;79;20996;-88
2022/11/13 03:04:57;;;;;;;8.73;3.72;;;;;;;13.63;78.70;102786.80;1770121;79;20967;-88
2022/11/13 03:07:24;;;;;;;7.45;3.83;;;;;;;13.63;78.67;102789.84;1768525;79;21754;-88
2022/11/13 03:09:51;;;;;;;12.58;4.30;;;;;;;13.62;78.69;102791.59;1751028;79;21984;-87
2022/11/13 03:12:18;;;;;;;8.43;3.45;;;;;;;13.64;78.65;102792.98;1769196;79;21015;-87
2022/11/13 03:14:44;;;;;;;8.98;3.85;;;;;;;13.61;78.52;102798.63;1774355;79;21042;-88
2022/11/13 03:17:11;;;;;;;11.03;4.42;;;;;;;13.59;78.46;102791.47;1764223;79;21039;-88
2022/11/13 03:19:38;;;;;;;7.83;4.03;;;;;;;13.60;78.57;102799.87;1772784;79;21704;-88
2022/11/13 03:22:05;;;;;;;12.03;5.22;;;;;;;13.61;78.53;102803.03;1768050;79;21014;-88
2022/11/13 03:24:32;;;;;;;6.08;3.58;;;;;;;13.62;78.49;102807.47;1766232;79;21472;-88
2022/11/13 03:26:58;;;;;;;7.90;3.95;;;;;;;13.61;78.42;102801.70;1769026;79;21019;-87
2022/11/13 03:29:25;;;;;;;9.73;3.83;;;;;;;13.60;78.44;102797.23;1770903;79;21063;-87
2022/11/13 03:31:52;;;;;;;13.55;4.40;;;;;;;13.60;78.37;102797.23;1764296;79;21744;-88
2022/11/13 03:34:19;;;;;;;11.90;4.30;;;;;;;13.60;78.39;102790.19;1763238;79;21449;-87
2022/11/13 03:36:45;;;;;;;10.78;4.10;;;;;;;13.64;78.44;102794.31;1768375;79;20978;-88
2022/11/13 03:39:12;;;;;;;10.65;4.12;;;;;;;13.63;78.33;102797.78;1773922;79;20963;-88
2022/11/13 03:41:39;;;;;;;13.25;4.83;;;;;;;13.61;78.33;102804.35;1766252;79;20927;-87
2022/11/13 03:44:06;;;;;;;9.78;4.62;;;;;;;13.59;78.35;102797.66;1763315;79;21702;-88
2022/11/13 03:46:32;;;;;;;11.73;5.17;;;;;;;13.58;78.29;102797.58;1766171;79;21606;-87
2022/11/13 03:48:59;;;;;;;12.47;4.22;;;;;;;13.55;78.23;102794.39;1762363;79;21007;-87
2022/11/13 03:51:28;;;;;;;8.30;4.42;;;;;;;13.54;78.33;102795.64;1772110;79;21043;-87
2022/11/13 03:53:59;;;;;;;10.65;4.30;;;;;;;13.54;78.32;102800.51;1771369;79;21054;-87
2022/11/13 03:56:26;;;;;;;14.38;5.00;;;;;;;13.55;78.33;102801.41;1768697;79;21778;-88
2022/11/13 03:58:52;;;;;;;11.08;4.72;;;;;;;13.56;78.44;102796.19;1765852;79;21125;-87
2022/11/13 04:01:19;;;;;;;11.35;4.58;;;;;;;13.58;78.48;102799.80;1771284;79;20995;-87
2022/11/13 04:03:46;;;;;;;13.98;4.65;;;;;;;13.60;78.45;102801.20;1771626;79;21006;-87
2022/11/13 04:06:13;;;;;;;13.75;5.25;;;;;;;13.59;78.36;102801.62;1767874;79;21082;-88
2022/11/13 04:08:40;;;;;;;9.75;4.28;;;;;;;13.56;78.34;102797.51;1765098;79;21741;-87
2022/11/13 04:11:08;;;;;;;10.58;4.85;;;;;;;13.56;78.39;102796.19;1764369;79;21839;-87
2022/11/13 04:13:35;;;;;;;11.60;4.95;;;;;;;13.58;78.42;102798.48;1749962;80;20996;-87
2022/11/13 04:16:02;;;;;;;12.53;4.67;;;;;;;13.59;78.42;102794.12;1765810;79;20955;-87
2022/11/13 04:18:28;;;;;;;10.40;4.10;;;;;;;13.58;78.37;102796.27;1766452;79;21081;-88
2022/11/13 04:20:59;;;;;;;8.88;4.30;;;;;;;13.56;78.38;102797.51;1768266;79;21721;-87
2022/11/13 04:23:26;;;;;;;12.15;4.70;;;;;;;13.56;78.38;102797.51;1764033;79;21023;-87
2022/11/13 04:25:53;;;;;;;10.45;4.40;;;;;;;13.54;78.27;102798.28;1771011;79;21031;-87
2022/11/13 04:28:20;;;;;;;10.40;4.25;;;;;;;13.51;78.30;102801.67;1768118;79;20983;-87
2022/11/13 04:30:46;;;;;;;10.58;4.20;;;;;;;13.49;78.42;102796.73;1774277;79;20987;-87
2022/11/13 04:33:13;;;;;;;9.93;4.17;;;;;;;13.50;78.45;102801.20;1761789;79;21712;-88
2022/11/13 04:35:44;;;;;;;9.28;4.15;;;;;;;13.48;78.41;102805.95;1770242;79;21006;-87
2022/11/13 04:38:08;;;;;;;10.82;4.30;;;;;;;13.44;78.44;102802.66;1761598;79;21014;-87
2022/11/13 04:40:35;;;;;;;10.45;4.28;;;;;;;13.43;78.41;102807.47;1768067;79;21050;-87
2022/11/13 04:43:02;;;;;;;8.58;4.42;;;;;;;13.41;78.48;102810.04;1765662;79;21517;-87
2022/11/13 04:45:29;;;;;;;8.70;3.95;;;;;;;13.43;78.60;102808.37;1769232;79;21704;-87
2022/11/13 04:47:56;;;;;;;8.85;4.05;;;;;;;13.46;78.66;102810.23;1762789;79;21848;-88
2022/11/13 04:50:22;;;;;;;11.03;4.75;;;;;;;13.44;78.50;102809.27;1763240;79;20974;-87
2022/11/13 04:52:49;;;;;;;14.68;4.72;;;;;;;13.42;78.47;102810.55;1763772;79;21018;-88
2022/11/13 04:55:15;;;;;;;13.38;5.85;;;;;;;13.40;78.39;102811.79;1762145;79;22372;-87
2022/11/13 04:57:42;;;;;;;16.57;6.85;;;;;;;13.39;78.40;102806.42;1761826;79;21725;-87
2022/11/13 05:00:10;;;;;;;12.63;6.12;;;;;;;13.39;78.42;102803.78;1768048;79;20998;-87
2022/11/13 05:02:37;;;;;;;12.75;5.95;;;;;;;13.40;78.44;102806.89;1767285;79;21015;-87
2022/11/13 05:05:04;;;;;;;14.60;6.37;;;;;;;13.41;78.48;102808.72;1763571;79;21018;-87
2022/11/13 05:07:31;;;;;;;11.50;6.55;;;;;;;13.41;78.52;102808.72;1765769;79;21960;-87
2022/11/13 05:09:57;;;;;;;15.23;6.80;;;;;;;13.44;78.42;102814.55;1762627;79;21750;-87
2022/11/13 05:12:24;;;;;;;12.47;5.72;;;;;;;13.39;78.39;102815.25;1770350;79;20972;-87
2022/11/13 05:14:51;;;;;;;10.38;5.50;;;;;;;13.38;78.36;102812.14;1766637;79;21444;-87
2022/11/13 05:17:18;;;;;;;11.95;5.28;;;;;;;13.35;78.39;102809.34;1768541;79;21014;-87
2022/11/13 05:19:44;;;;;;;12.05;5.12;;;;;;;13.35;78.44;102807.12;1760768;79;21005;-88
2022/11/13 05:22:11;;;;;;;8.25;5.00;;;;;;;13.38;78.50;102813.85;1775221;79;22984;-87
2022/11/13 05:24:38;;;;;;;14.40;5.62;;;;;;;13.37;78.46;102808.09;1769978;79;21796;-87
2022/11/13 05:27:04;;;;;;;14.10;5.92;;;;;;;13.36;78.41;102811.56;1772915;79;21935;-87
2022/11/13 05:29:31;;;;;;;9.93;5.50;;;;;;;13.34;78.46;102804.86;1764174;79;21022;-87
2022/11/13 05:32:03;;;;;;;12.50;5.58;;;;;;;13.34;78.41;102805.30;1774493;79;21468;-88
2022/11/13 05:34:30;;;;;;;12.78;5.03;;;;;;;13.32;78.30;102808.29;1768205;79;21709;-87
2022/11/13 05:36:56;;;;;;;8.08;4.83;;;;;;;13.31;78.33;102800.78;1765076;79;20971;-87
2022/11/13 05:39:23;;;;;;;11.60;4.95;;;;;;;13.34;78.32;102803.55;1776809;79;20995;-87
2022/11/13 05:41:50;;;;;;;11.12;5.33;;;;;;;13.36;78.38;102808.91;1773490;79;21564;-87
2022/11/13 05:44:16;;;;;;;13.80;5.47;;;;;;;13.39;78.38;102820.97;1776541;79;21002;-88
2022/11/13 05:46:43;;;;;;;11.88;5.62;;;;;;;13.40;78.43;102819.72;1759270;79;21564;-88
2022/11/13 05:49:10;;;;;;;12.30;5.22;;;;;;;13.41;78.36;102813.58;1773277;79;20966;-88
2022/11/13 05:51:37;;;;;;;7.97;4.22;;;;;;;13.39;78.33;102817.90;1768037;79;21012;-87
2022/11/13 05:54:05;;;;;;;10.55;4.22;;;;;;;13.36;78.24;102816.84;1767623;79;20983;-88
2022/11/13 05:56:34;;;;;;;11.28;4.55;;;;;;;13.38;78.14;102821.40;1772570;79;21113;-87
2022/11/13 05:59:01;;;;;;;10.05;4.40;;;;;;;13.38;78.17;102819.14;1771523;79;21958;-87
2022/11/13 06:01:51;;;;;;;11.63;4.35;;;;;;;13.37;78.02;102814.28;1774549;79;20979;-87
2022/11/13 06:04:20;;;;;;;7.72;3.30;;;;;;;13.37;77.93;102814.28;1750488;79;21019;-89
2022/11/13 06:06:47;;;;;;;13.58;4.15;;;;;;;13.40;77.91;102818.80;1766380;79;21031;-88
2022/11/13 06:09:17;;;;;;;11.65;5.67;;;;;;;13.40;77.74;102821.05;1768552;79;21077;-88
2022/11/13 06:11:44;;;;;;;11.75;4.60;;;;;;;13.39;77.73;102819.22;1764754;79;21760;-88
2022/11/13 06:14:26;;;;;;;10.03;4.47;;;;;;;13.40;77.82;102818.80;1766705;79;21001;-87
2022/11/13 06:16:53;;;;;;;15.05;8.28;;;;;;;13.42;77.88;102811.87;1769799;79;20970;-87
2022/11/13 06:19:19;;;;;;;10.32;6.67;;;;;;;13.41;77.78;102813.58;1773478;79;21369;-88
2022/11/13 06:21:46;;;;;;;12.30;6.85;;;;;;;13.43;77.83;102816.73;1763958;79;21504;-88
2022/11/13 06:24:13;;;;;;;9.98;5.42;;;;;;;13.37;77.73;102808.09;1773406;79;23115;-87
2022/11/13 06:26:40;;;;;;;8.25;5.53;;;;;;;13.41;77.82;102826.81;1767299;79;21003;-87
2022/11/13 06:29:07;;;;;;;7.92;5.22;;;;;;;13.41;77.82;102824.59;1766388;80;20999;-87
2022/11/13 06:31:35;;;;;;;13.68;5.40;;;;;;;13.42;77.82;102829.06;1770075;80;21685;-88
2022/11/13 06:34:02;;;;;;;10.55;5.33;;;;;;;13.41;77.86;102833.42;1763909;80;21026;-88
2022/11/13 06:36:48;;;;;;;13.13;5.70;;;;;;;13.41;77.89;102831.20;1770277;79;22440;-88
2022/11/13 06:39:12;;;;;;;13.13;6.00;;;;;;;13.42;77.97;102838.32;1753214;80;20900;-88
2022/11/13 06:41:46;;;;;;;15.75;7.65;;;;;;;13.40;77.88;102835.59;1767534;80;20947;-88
2022/11/13 06:44:14;;;;;;;15.60;6.22;;;;;;;13.40;77.79;102838.24;1759526;79;21003;-89
2022/11/13 06:46:41;;;;;;;11.75;6.53;;;;;;;13.41;77.81;102846.65;1762670;79;20993;-86
2022/11/13 06:49:18;;;;;;;12.35;6.80;;;;;;;13.45;77.92;102844.16;1766765;79;21739;-86
2022/11/13 06:51:40;;;;;;;12.88;7.35;;;;;;;13.49;77.95;102844.78;1767706;80;20975;-87
2022/11/13 06:54:16;;;;;;;14.53;8.68;;;;;;;13.47;77.92;102846.03;1763532;80;20949;-86
2022/11/13 06:56:44;;;;;;;15.43;7.58;;;;;;;13.49;77.92;102844.78;1774618;79;21013;-86
2022/11/13 06:59:17;;;;;;;12.53;7.37;;;;;;;13.47;77.87;102842.06;1769742;80;20967;-87
2022/11/13 07:01:41;;;;;;;13.90;8.68;;;;;;;13.45;77.87;102842.41;1754406;79;21732;-86
2022/11/13 07:04:10;;;;;;;15.35;7.92;;;;;;;13.47;77.85;102847.78;1765511;80;20999;-87
2022/11/13 07:06:45;;;;;;;13.78;7.95;;;;;;;13.45;77.76;102851.67;1762991;80;20947;-87
2022/11/13 07:09:12;;;;;;;15.68;8.03;;;;;;;13.44;77.83;102849.88;1765879;80;21055;-86
2022/11/13 07:11:38;;;;;;;15.60;8.53;;;;;;;13.46;77.82;102848.59;1762908;79;20982;-86
2022/11/13 07:14:05;;;;;;;16.05;9.35;;;;;;;13.47;77.79;102843.81;1756683;80;21782;-87
2022/11/13 07:16:32;;;;;;;13.88;8.65;;;;;;;13.49;77.82;102842.14;1757017;80;21271;-86
2022/11/13 07:18:59;;;;;;;13.15;7.00;;;;;;;13.49;77.78;102840.39;1765342;80;20991;-86
2022/11/13 07:21:25;;;;;;;14.68;6.12;;;;;;;13.50;77.78;102842.64;1765972;80;21590;-86
2022/11/13 07:23:52;;;;;;;15.55;5.78;;;;;;;13.51;77.67;102840.47;1766348;80;20963;-86
2022/11/13 07:26:19;;;;;;;14.45;5.80;;;;;;;13.54;77.62;102842.84;1756697;79;21665;-86
2022/11/13 07:28:46;;;;;;;12.23;6.70;;;;;;;13.57;77.46;102842.06;1763850;79;21049;-86
2022/11/13 07:31:13;;;;;;;16.62;7.28;;;;;;;13.60;77.33;102847.08;1779374;79;20978;-86
2022/11/13 07:33:41;;;;;;;13.98;7.03;;;;;;;13.62;77.27;102843.19;1777754;79;21382;-86
2022/11/13 07:36:09;;;;;;;12.63;6.08;;;;;;;13.63;77.10;102843.69;1778158;79;21030;-85
2022/11/13 07:38:35;;;;;;;13.70;5.15;;;;;;;13.62;76.92;102844.52;1779168;79;21513;-87
2022/11/13 07:41:18;;;;;;;11.48;5.28;;;;;;;13.66;76.84;102841.59;1768321;79;21053;-87
2022/11/13 07:43:51;;;;;;;13.43;5.90;;;;;;;13.69;76.70;102843.97;1774147;79;21023;-87
2022/11/13 07:46:17;;;;;;;9.08;4.58;;;;;;;13.72;76.50;102841.86;1777346;79;21014;-86
2022/11/13 07:48:44;;;;;;;15.75;5.67;;;;;;;13.72;76.33;102843.19;1776383;79;21126;-87
2022/11/13 07:51:13;;;;;;;11.68;5.75;;;;;;;13.73;76.33;102846.34;1778897;79;20940;-87
2022/11/13 07:53:39;;;;;;;12.88;6.35;;;;;;;13.79;76.36;102844.89;1784040;79;21349;-86
2022/11/13 07:56:07;;;;;;;11.60;4.85;;;;;;;13.84;76.27;102845.08;1776873;79;20998;-86
2022/11/13 07:58:36;;;;;;;13.22;4.90;;;;;;;13.89;76.17;102842.23;1778628;79;21033;-86
2022/11/13 08:01:04;;;;;;;11.80;4.87;;;;;;;13.91;76.03;102842.30;1776962;79;21026;-86
2022/11/13 08:03:36;;;;;;;14.10;5.55;;;;;;;13.96;76.06;102849.62;1773645;79;21802;-86
2022/11/13 08:06:04;;;;;;;10.72;4.60;;;;;;;14.05;76.11;102850.42;1748583;79;20914;-86
2022/11/13 08:08:30;;;;;;;18.00;5.37;;;;;;;14.12;75.98;102851.61;1778763;79;21062;-86
2022/11/13 08:11:05;;;;;;;11.12;5.22;;;;;;;14.17;75.77;102844.75;1782704;79;21027;-86
2022/11/13 08:13:38;;;;;;;12.23;5.15;;;;;;;14.20;75.73;102847.55;1775000;79;21068;-86
2022/11/13 08:16:07;;;;;;;11.75;4.92;;;;;;;14.30;75.85;102843.55;1775059;79;21915;-87
2022/11/13 08:18:34;;;;;;;13.13;5.22;;;;;;;14.38;75.75;102846.13;1781064;79;20983;-86
2022/11/13 08:21:17;;;;;;;15.60;5.30;;;;;;;14.45;75.56;102849.53;1785259;79;21007;-87
2022/11/13 08:23:36;;;;;;;11.70;5.17;;;;;;;14.53;75.50;102853.40;1776123;79;21019;-87
2022/11/13 08:26:05;;;;;;;10.78;4.97;;;;;;;14.60;75.24;102855.01;1779363;79;22201;-86
2022/11/13 08:28:32;;;;;;;8.65;4.60;;;;;;;14.61;74.90;102856.41;1784232;79;21724;-86
2022/11/13 08:30:59;;;;;;;11.75;4.47;;;;;;;14.60;74.65;102857.66;1781288;79;21084;-87
2022/11/13 08:33:26;;;;;;;10.78;4.35;;;;;;;14.63;74.73;102852.07;1784693;79;21529;-86
2022/11/13 08:35:57;;;;;;;11.38;4.47;;;;;;;14.69;74.46;102855.39;1779585;79;21014;-86
2022/11/13 08:38:24;;;;;;;11.78;4.00;;;;;;;14.71;74.25;102845.33;1787013;79;22134;-87
2022/11/13 08:40:50;;;;;;;11.40;4.67;;;;;;;14.77;74.28;102849.58;1776738;78;21731;-86
2022/11/13 08:43:18;;;;;;;8.70;4.15;;;;;;;14.81;74.16;102847.97;1770991;78;21812;-86
2022/11/13 08:45:46;;;;;;;9.00;4.22;;;;;;;14.87;74.05;102848.64;1771083;78;21025;-86
2022/11/13 08:48:12;;;;;;;7.87;3.72;;;;;;;14.95;73.90;102850.73;1768978;78;21828;-86
2022/11/13 08:50:39;;;;;;;7.00;3.12;;;;;;;14.97;73.43;102849.48;1771971;78;21534;-87
2022/11/13 08:53:06;;;;;;;7.55;4.00;;;;;;;14.99;73.03;102843.81;1776553;78;22547;-87
2022/11/13 08:55:33;;;;;;;8.50;3.05;;;;;;;15.06;72.76;102844.98;1781892;79;21932;-86
2022/11/13 08:58:05;;;;;;;8.10;3.55;;;;;;;15.15;72.47;102836.96;1774946;79;20971;-86
2022/11/13 09:00:34;;;;;;;5.47;3.12;;;;;;;15.24;72.33;102843.45;1785054;79;21447;-85
2022/11/13 09:03:01;;;;;;;7.50;2.98;;;;;;;15.33;71.95;102839.44;1774841;79;21035;-86
2022/11/13 09:05:28;;;;;;;6.50;3.20;;;;;;;15.43;71.77;102841.09;1772554;78;22680;-86
2022/11/13 09:07:58;;;;;;;12.37;3.47;;;;;;;15.51;71.40;102843.64;1778685;78;21018;-86
2022/11/13 09:10:26;;;;;;;7.50;3.17;;;;;;;15.59;71.40;102844.82;1772594;79;20972;-85
2022/11/13 09:13:00;;;;;;;9.05;2.87;;;;;;;15.68;71.34;102847.83;1774496;79;21363;-85
2022/11/13 09:15:30;;;;;;;7.50;2.70;;;;;;;15.80;71.16;102842.09;1740772;79;21852;-86
2022/11/13 09:17:58;;;;;;;8.68;2.67;;;;;;;15.89;70.90;102841.54;1781598;79;21739;-86
2022/11/13 09:20:31;;;;;;;12.30;4.55;;;;;;;15.93;70.67;102840.39;1784286;78;20970;-85
2022/11/13 09:23:00;;;;;;;10.03;5.55;;;;;;;15.99;70.58;102842.77;1784484;79;21499;-86
2022/11/13 09:25:34;;;;;;;9.93;5.87;;;;;;;16.02;70.83;102842.89;1773128;79;20947;-86
2022/11/13 09:28:17;;;;;;;13.60;6.33;;;;;;;15.99;70.69;102836.13;1737846;80;21083;-86
2022/11/13 09:30:44;;;;;;;9.80;5.50;;;;;;;15.92;70.89;102835.02;1691668;82;22255;-86
2022/11/13 09:33:14;;;;;;;12.40;5.37;;;;;;;15.94;71.04;102835.98;1712257;82;21000;-86
2022/11/13 09:35:39;;;;;;;9.93;4.42;;;;;;;15.96;70.99;102839.59;1713406;82;21059;-86
2022/11/13 09:38:09;;;;;;;10.43;4.85;;;;;;;15.97;70.80;102840.48;1714487;82;21658;-87
2022/11/13 09:41:08;;;;;;;8.13;4.50;;;;;;;15.94;70.67;102843.52;1713442;82;21906;-87
2022/11/13 09:43:46;;;;;;;9.78;4.42;;;;;;;15.93;70.68;102840.39;1724808;82;21646;-86
2022/11/13 09:46:39;;;;;;;11.53;4.78;;;;;;;15.93;70.64;102841.72;1713301;82;21226;-87
2022/11/13 09:49:16;;;;;;;10.20;4.97;;;;;;;15.93;70.65;102836.81;1719767;82;21074;-87
2022/11/13 09:51:52;;;;;;;14.15;6.08;;;;;;;15.91;70.46;102830.55;1716076;82;21031;-87
2022/11/13 09:54:19;;;;;;;8.75;5.10;;;;;;;15.86;70.10;102836.10;1711924;81;21155;-87
2022/11/13 09:57:06;;;;;;;70.22;44.95;;;;;;;15.82;70.23;102836.84;1711721;81;22008;-86
2022/11/13 10:00:10;;;;;;;15.93;9.33;;;;;;;15.78;69.90;102837.16;1689771;81;20987;-87
2022/11/13 10:02:59;;;;;;;73.92;40.80;;;;;;;15.68;69.56;102838.97;1714463;82;21031;-87
2022/11/13 10:06:04;;;;;;;53.78;30.12;;;;;;;15.60;69.61;102837.75;1710671;82;20996;-87
2022/11/13 10:08:54;;;;;;;21.42;12.98;;;;;;;15.59;69.70;102832.88;1714125;82;21074;-88
2022/11/13 10:11:41;;;;;;;11.78;5.78;;;;;;;15.66;69.67;102843.31;1711495;82;21730;-87
2022/11/13 10:14:16;;;;;;;12.55;5.70;;;;;;;15.67;69.61;102834.09;1713874;82;21036;-86
2022/11/13 10:16:56;;;;;;;15.23;6.17;;;;;;;15.71;69.54;102830.70;1704478;82;21015;-83
2022/11/13 10:19:31;;;;;;;11.08;4.90;;;;;;;15.73;69.46;102833.02;1710195;82;21036;-83
2022/11/13 10:22:02;;;;;;;16.45;10.58;;;;;;;15.76;69.04;102832.64;1636591;85;22056;-83
2022/11/13 10:24:39;;;;;;;12.93;7.83;;;;;;;15.77;68.84;102821.19;1618293;86;22029;-84
2022/11/13 10:27:10;;;;;;;13.15;6.65;;;;;;;15.81;68.67;102825.76;1632492;85;21075;-84
2022/11/13 10:29:37;;;;;;;10.60;6.28;;;;;;;15.82;68.74;102804.98;1623540;86;21112;-85
2022/11/13 10:32:29;;;;;;;14.83;6.33;;;;;;;15.96;68.84;102821.43;1630697;86;21083;-84
2022/11/13 10:35:06;;;;;;;10.55;4.95;;;;;;;15.99;68.75;102811.83;1632757;86;21062;-84
2022/11/13 10:38:08;;;;;;;9.10;3.58;;;;;;;16.05;68.65;102816.02;1629572;86;21798;-85
2022/11/13 10:40:38;;;;;;;7.72;3.55;;;;;;;16.13;68.67;102815.85;1637248;86;21047;-84
2022/11/13 10:43:18;;;;;;;7.60;3.42;;;;;;;16.19;68.29;102817.81;1628813;86;21390;-90
2022/11/13 10:46:03;;;;;;;8.70;3.08;;;;;;;16.21;67.87;102811.23;1624924;86;21024;-90
2022/11/13 10:48:34;;;;;;;8.63;4.35;;;;;;;16.28;67.67;102802.63;1631544;86;21028;-88
2022/11/13 10:51:04;;;;;;;10.18;4.45;;;;;;;16.38;67.67;102794.10;1635740;86;21936;-86
2022/11/13 10:53:41;;;;;;;8.73;3.87;;;;;;;16.50;67.71;102801.61;1630760;86;21006;-87
2022/11/13 10:56:31;;;;;;;9.78;4.08;;;;;;;16.58;67.35;102797.44;1624233;86;21489;-86
2022/11/13 10:59:15;;;;;;;7.35;3.95;;;;;;;16.66;67.10;102799.02;1646319;82;20976;-86
2022/11/13 11:01:43;;;;;;;9.40;3.40;;;;;;;16.70;66.72;102794.27;1709342;82;21489;-86
2022/11/13 11:04:30;;;;;;;6.15;3.00;;;;;;;16.76;66.83;102799.80;1711502;82;23041;-82
2022/11/13 11:06:54;;;;;;;6.43;3.27;;;;;;;16.80;66.77;102794.12;1670965;82;20991;-82
2022/11/13 11:09:28;;;;;;;7.25;3.35;;;;;;;16.81;66.59;102791.96;1702824;82;21070;-82
2022/11/13 11:12:20;;;;;;;10.43;3.60;;;;;;;16.74;66.37;102800.59;1709264;82;22477;-83
2022/11/13 11:15:19;;;;;;;9.65;3.72;;;;;;;16.62;66.07;102797.11;1701236;82;21832;-82
2022/11/13 11:17:58;;;;;;;8.13;3.20;;;;;;;16.48;65.98;102790.02;1718699;82;22550;-82
2022/11/13 11:20:36;;;;;;;8.05;2.77;;;;;;;16.39;66.11;102795.92;1706163;82;20892;-82
2022/11/13 11:23:38;;;;;;;8.13;3.08;;;;;;;16.32;66.09;102787.26;1702811;82;22491;-82
2022/11/13 11:26:18;;;;;;;10.35;3.72;;;;;;;16.19;66.05;102790.35;1702401;82;21020;-83
2022/11/13 11:29:02;;;;;;;8.18;3.85;;;;;;;16.02;66.12;102781.36;1667478;82;21881;-83
2022/11/13 11:31:48;;;;;;;11.85;3.83;;;;;;;15.96;66.38;102786.91;1759199;79;23167;-83
2022/11/13 11:34:34;;;;;;;9.05;4.10;;;;;;;15.88;66.34;102781.32;1658849;85;21005;-82
2022/11/13 11:37:19;;;;;;;7.33;3.92;;;;;;;15.80;66.22;102792.08;1655600;84;21016;-84
2022/11/13 11:39:57;;;;;;;9.45;4.22;;;;;;;15.66;66.21;102788.46;1651826;85;21496;-83